Time;durP1;ratioP1;P1;durP2;ratioP2;P2;SDS_P1;SDS_P2;PMS_P1;PMS_P2;Temp;Humidity;BMP_temperature;BMP_pressure;BME280_temperature;BME280_humidity;BME280_pressure;Samples;Min_cycle;Max_cycle;Signal;HPM_P1;HPM_P2
2022/12/02 00:00:19;;;;;;;43.57;31.57;;;3.10;99.90;;;;;;5102984;28;20989;-55
2022/12/02 00:02:45;;;;;;;42.58;31.00;;;3.10;99.90;;;;;;5103371;28;20518;-54
2022/12/02 00:05:10;;;;;;;40.00;29.90;;;3.10;99.90;;;;;;5102798;28;20188;-55
2022/12/02 00:07:36;;;;;;;43.83;31.77;;;3.10;99.90;;;;;;5102420;28;20461;-55
2022/12/02 00:10:20;;;;;;;41.03;30.33;;;3.20;99.90;;;;;;5103227;28;20199;-54
2022/12/02 00:12:46;;;;;;;42.97;30.67;;;3.20;99.90;;;;;;5102993;28;20176;-52
2022/12/02 00:15:40;;;;;;;41.67;31.73;;;3.10;99.90;;;;;;5103009;28;20187;-56
2022/12/02 00:18:07;;;;;;;42.50;29.65;;;3.20;99.90;;;;;;5102512;28;20198;-58
2022/12/02 00:20:33;;;;;;;45.22;32.20;;;3.10;99.90;;;;;;5103038;28;20172;-55
2022/12/02 00:22:58;;;;;;;46.03;32.37;;;3.20;99.90;;;;;;5101244;28;21649;-54
2022/12/02 00:25:24;;;;;;;49.00;33.03;;;3.20;99.90;;;;;;5102394;28;20320;-53
2022/12/02 00:27:50;;;;;;;49.23;33.00;;;3.20;99.90;;;;;;5100618;28;20226;-53
2022/12/02 00:30:16;;;;;;;44.33;32.90;;;3.10;99.90;;;;;;5102323;28;20195;-55
2022/12/02 00:32:42;;;;;;;47.15;32.70;;;3.10;99.90;;;;;;5100258;28;20180;-55
2022/12/02 00:35:07;;;;;;;48.60;33.70;;;3.10;99.90;;;;;;5102245;28;20183;-55
2022/12/02 00:37:33;;;;;;;46.33;32.70;;;3.10;99.90;;;;;;5100650;28;20224;-54
2022/12/02 00:39:59;;;;;;;43.60;33.07;;;3.10;99.90;;;;;;5102261;28;20191;-52
2022/12/02 00:42:24;;;;;;;46.63;33.03;;;3.10;99.90;;;;;;5100780;28;20922;-56
2022/12/02 00:47:34;;;;;;;50.55;33.85;;;3.20;99.90;;;;;;5100337;28;20590;-55
2022/12/02 00:50:00;;;;;;;44.67;32.80;;;3.10;99.90;;;;;;5099973;28;20192;-56
2022/12/02 00:52:25;;;;;;;45.70;33.27;;;3.20;99.90;;;;;;5102017;28;20197;-53
2022/12/02 00:54:51;;;;;;;45.10;33.30;;;3.20;99.90;;;;;;5100729;28;20538;-55
2022/12/02 00:57:16;;;;;;;49.60;36.17;;;3.10;99.90;;;;;;5101415;28;20245;-54
2022/12/02 00:59:42;;;;;;;49.50;33.90;;;3.20;99.90;;;;;;5101097;28;20192;-52
2022/12/02 01:02:08;;;;;;;47.47;33.83;;;3.20;99.90;;;;;;5101732;28;20748;-51
2022/12/02 01:04:33;;;;;;;47.03;31.80;;;3.20;99.90;;;;;;5098388;28;20444;-52
2022/12/02 01:06:59;;;;;;;46.13;33.70;;;3.20;99.90;;;;;;5100624;28;20318;-53
2022/12/02 01:09:25;;;;;;;47.80;32.97;;;3.20;99.90;;;;;;5100905;28;20300;-53
2022/12/02 01:11:50;;;;;;;45.50;31.30;;;3.20;99.90;;;;;;5101377;28;20308;-52
2022/12/02 01:14:16;;;;;;;47.00;32.20;;;3.20;99.90;;;;;;5100654;28;20672;-54
2022/12/02 01:16:41;;;;;;;47.13;32.30;;;3.20;99.90;;;;;;5100388;28;20302;-52
2022/12/02 01:19:07;;;;;;;45.23;32.53;;;3.20;99.90;;;;;;5099212;28;20184;-55
2022/12/02 01:21:33;;;;;;;45.13;31.93;;;3.20;99.90;;;;;;5100588;28;21263;-52
2022/12/02 01:23:58;;;;;;;43.20;31.90;;;3.20;99.90;;;;;;5100291;28;20176;-57
2022/12/02 01:26:24;;;;;;;47.37;32.73;;;3.20;99.90;;;;;;5100810;28;20240;-54
2022/12/02 01:28:49;;;;;;;43.57;33.57;;;3.20;99.90;;;;;;5100574;28;20184;-57
2022/12/02 01:31:15;;;;;;;43.90;31.80;;;3.10;99.90;;;;;;5100915;28;20579;-55
2022/12/02 01:33:41;;;;;;;42.33;30.20;;;3.10;99.90;;;;;;5100066;28;20188;-54
2022/12/02 01:36:07;;;;;;;44.83;33.17;;;3.10;99.90;;;;;;5100982;28;20217;-52
2022/12/02 01:38:32;;;;;;;48.95;32.10;;;3.10;99.90;;;;;;5101296;28;20266;-54
2022/12/02 01:40:59;;;;;;;43.93;30.80;;;3.10;99.90;;;;;;5100947;28;20287;-50
2022/12/02 01:43:25;;;;;;;43.85;32.10;;;3.10;99.90;;;;;;5101420;28;20186;-53
2022/12/02 01:45:51;;;;;;;45.45;31.95;;;3.10;99.90;;;;;;5101863;28;20196;-55
2022/12/02 01:48:17;;;;;;;45.05;31.80;;;3.10;99.90;;;;;;5101047;28;20214;-55
2022/12/02 01:50:43;;;;;;;44.15;31.42;;;3.20;99.90;;;;;;5101271;28;20641;-56
2022/12/02 01:53:09;;;;;;;42.10;30.90;;;3.20;99.90;;;;;;5100930;28;20222;-55
2022/12/02 01:55:34;;;;;;;44.57;31.33;;;3.20;99.90;;;;;;5101166;28;20447;-54
2022/12/02 01:58:00;;;;;;;46.87;31.20;;;3.20;99.90;;;;;;5100793;28;20663;-53
2022/12/02 02:00:27;;;;;;;42.97;31.60;;;3.20;99.90;;;;;;5100818;28;20260;-53
2022/12/02 02:02:52;;;;;;;40.95;29.25;;;3.20;99.90;;;;;;5100911;28;20184;-52
2022/12/02 02:05:25;;;;;;;45.00;32.17;;;3.20;99.90;;;;;;5099535;28;20638;-51
2022/12/02 02:07:56;;;;;;;40.60;30.52;;;3.20;99.90;;;;;;5101364;28;20272;-52
2022/12/02 02:10:24;;;;;;;44.75;30.60;;;3.20;99.90;;;;;;5100953;28;20179;-55
2022/12/02 02:12:52;;;;;;;42.55;32.05;;;3.20;99.90;;;;;;5100637;28;20902;-52
2022/12/02 02:15:19;;;;;;;43.53;30.88;;;3.20;99.90;;;;;;5100672;28;20176;-54
2022/12/02 02:17:46;;;;;;;41.08;30.25;;;3.20;99.90;;;;;;5100388;28;20607;-52
2022/12/02 02:20:14;;;;;;;40.42;29.33;;;3.20;99.90;;;;;;5099136;28;20183;-52
2022/12/02 02:23:02;;;;;;;39.60;29.33;;;3.20;99.90;;;;;;5098969;28;20217;-54
2022/12/02 02:25:28;;;;;;;39.20;28.83;;;3.20;99.90;;;;;;5100461;28;20209;-55
2022/12/02 02:27:56;;;;;;;41.30;28.40;;;3.10;99.90;;;;;;5099611;28;20207;-52
2022/12/02 02:30:22;;;;;;;36.22;28.25;;;3.10;99.90;;;;;;5099082;28;20225;-54
2022/12/02 02:32:49;;;;;;;36.97;28.70;;;3.10;99.90;;;;;;5099293;28;20262;-53
2022/12/02 02:35:16;;;;;;;38.08;29.17;;;3.10;99.90;;;;;;5099201;28;20188;-50
2022/12/02 02:37:43;;;;;;;39.30;28.83;;;3.10;99.90;;;;;;5100830;28;20274;-49
2022/12/02 02:40:10;;;;;;;35.85;27.52;;;3.10;99.90;;;;;;5102403;28;20191;-49
2022/12/02 02:42:36;;;;;;;38.78;29.23;;;3.10;99.90;;;;;;5102964;28;20311;-51
2022/12/02 02:45:02;;;;;;;39.30;29.73;;;3.00;99.90;;;;;;5104290;28;20821;-48
2022/12/02 02:47:28;;;;;;;35.75;28.27;;;3.10;99.90;;;;;;5103478;28;20488;-52
2022/12/02 02:49:54;;;;;;;36.77;27.90;;;3.10;99.90;;;;;;5101867;28;20305;-51
2022/12/02 02:52:19;;;;;;;39.23;29.03;;;3.10;99.90;;;;;;5100149;28;20947;-51
2022/12/02 02:54:45;;;;;;;40.07;30.53;;;3.10;99.90;;;;;;5104652;28;20641;-49
2022/12/02 02:57:10;;;;;;;38.33;28.73;;;3.10;99.90;;;;;;5102870;28;20287;-47
2022/12/02 02:59:41;;;;;;;34.77;27.37;;;3.10;99.90;;;;;;5102692;28;20244;-51
2022/12/02 03:02:10;;;;;;;36.13;27.75;;;3.10;99.90;;;;;;5103763;28;20270;-50
2022/12/02 03:04:36;;;;;;;36.47;27.45;;;3.00;99.90;;;;;;5102476;28;20183;-50
2022/12/02 03:07:02;;;;;;;38.53;28.58;;;3.10;99.90;;;;;;5102316;28;20225;-54
2022/12/02 03:09:28;;;;;;;36.20;27.10;;;3.10;99.90;;;;;;5102866;28;20209;-52
2022/12/02 03:11:56;;;;;;;35.10;28.13;;;3.10;99.90;;;;;;5103772;28;20440;-50
2022/12/02 03:14:22;;;;;;;36.42;29.15;;;3.10;99.90;;;;;;5104396;28;20779;-49
2022/12/02 03:16:49;;;;;;;36.20;29.60;;;3.10;99.90;;;;;;5103130;28;20243;-48
2022/12/02 03:19:16;;;;;;;37.20;28.20;;;3.20;99.90;;;;;;5103793;28;20409;-49
2022/12/02 03:21:42;;;;;;;38.92;29.45;;;3.20;99.90;;;;;;5102149;28;20194;-51
2022/12/02 03:24:08;;;;;;;38.17;27.40;;;3.20;99.90;;;;;;5102664;28;20622;-51
2022/12/02 03:26:35;;;;;;;34.35;27.20;;;3.10;99.90;;;;;;5103092;28;21335;-49
2022/12/02 03:29:03;;;;;;;35.88;29.13;;;3.20;99.90;;;;;;5102321;28;20329;-48
2022/12/02 03:31:29;;;;;;;36.58;27.58;;;3.20;99.90;;;;;;5102571;28;20180;-48
2022/12/02 03:33:56;;;;;;;36.97;29.00;;;3.10;99.90;;;;;;5103727;28;20184;-50
2022/12/02 03:36:22;;;;;;;34.80;27.42;;;3.10;99.90;;;;;;5103241;28;20241;-48
2022/12/02 03:38:48;;;;;;;38.60;30.08;;;3.20;99.90;;;;;;5102733;28;20244;-47
2022/12/02 03:41:13;;;;;;;39.47;29.63;;;3.10;99.90;;;;;;5102196;28;20283;-52
2022/12/02 03:43:39;;;;;;;37.17;28.17;;;3.20;99.90;;;;;;5103126;28;20445;-49
2022/12/02 03:46:06;;;;;;;36.90;28.20;;;3.20;99.90;;;;;;5100753;28;20949;-48
2022/12/02 03:48:34;;;;;;;39.03;28.40;;;3.20;99.90;;;;;;5102575;28;20567;-51
2022/12/02 03:51:00;;;;;;;37.53;28.52;;;3.20;99.90;;;;;;5102695;28;20292;-49
2022/12/02 03:53:27;;;;;;;35.50;27.33;;;3.20;99.90;;;;;;5103438;28;20254;-51
2022/12/02 03:55:54;;;;;;;32.00;27.02;;;3.20;99.90;;;;;;5103251;28;20172;-49
2022/12/02 03:58:19;;;;;;;38.30;29.33;;;3.20;99.90;;;;;;5103402;28;20195;-51
2022/12/02 04:00:45;;;;;;;37.47;29.17;;;3.10;99.90;;;;;;5103304;28;20184;-51
2022/12/02 04:03:11;;;;;;;36.70;28.77;;;3.10;99.90;;;;;;5103191;28;20180;-49
2022/12/02 04:05:37;;;;;;;35.30;28.00;;;3.10;99.90;;;;;;5103389;28;20587;-46
2022/12/02 04:08:02;;;;;;;38.90;30.23;;;3.10;99.90;;;;;;5103104;28;20225;-47
2022/12/02 04:10:28;;;;;;;39.33;27.50;;;3.10;99.90;;;;;;5103273;28;20275;-58
2022/12/02 04:12:54;;;;;;;34.80;28.63;;;3.10;99.90;;;;;;5103020;28;20232;-51
2022/12/02 04:15:19;;;;;;;37.83;28.10;;;3.10;99.90;;;;;;5102526;28;20184;-54
2022/12/02 04:17:46;;;;;;;37.00;28.47;;;3.10;99.90;;;;;;5102885;28;20232;-52
2022/12/02 04:20:12;;;;;;;39.70;30.48;;;3.10;99.90;;;;;;5102030;28;21053;-52
2022/12/02 04:22:37;;;;;;;38.63;28.00;;;3.10;99.90;;;;;;5102205;28;20188;-55
2022/12/02 04:25:03;;;;;;;32.67;27.63;;;3.10;99.90;;;;;;5101637;28;20198;-54
2022/12/02 04:27:29;;;;;;;36.85;28.85;;;3.10;99.90;;;;;;5100144;28;20302;-54
2022/12/02 04:29:55;;;;;;;35.67;27.93;;;3.10;99.90;;;;;;5100800;28;20278;-52
2022/12/02 04:32:20;;;;;;;37.90;28.50;;;3.10;99.90;;;;;;5101399;28;20250;-54
2022/12/02 04:34:46;;;;;;;38.03;27.53;;;3.10;99.90;;;;;;5102366;28;20191;-52
2022/12/02 04:37:11;;;;;;;34.70;27.40;;;3.10;99.90;;;;;;5101705;28;20263;-57
2022/12/02 04:39:37;;;;;;;34.57;27.60;;;3.00;99.90;;;;;;5100910;28;20180;-55
2022/12/02 04:42:03;;;;;;;37.73;27.93;;;3.00;99.90;;;;;;5099764;28;20564;-55
2022/12/02 04:44:29;;;;;;;34.60;26.90;;;3.00;99.90;;;;;;5102403;28;20272;-55
2022/12/02 04:46:54;;;;;;;34.67;26.87;;;3.00;99.90;;;;;;5101052;28;20468;-54
2022/12/02 04:49:20;;;;;;;36.83;28.20;;;3.00;99.90;;;;;;5098724;28;20393;-52
2022/12/02 04:51:45;;;;;;;37.00;28.77;;;3.00;99.90;;;;;;5100531;28;20541;-52
2022/12/02 04:54:11;;;;;;;36.37;27.17;;;2.90;99.90;;;;;;5100802;28;20195;-55
2022/12/02 04:56:37;;;;;;;36.57;28.10;;;3.00;99.90;;;;;;5101554;28;20191;-56
2022/12/02 04:59:02;;;;;;;36.10;27.57;;;3.00;99.90;;;;;;5101658;28;20930;-55
2022/12/02 05:01:28;;;;;;;36.67;27.93;;;3.00;99.90;;;;;;5100116;28;20441;-55
2022/12/02 05:03:54;;;;;;;34.87;27.83;;;2.90;99.90;;;;;;5101866;28;20199;-50
2022/12/02 05:06:19;;;;;;;34.90;28.27;;;3.00;99.90;;;;;;5098247;28;20220;-56
2022/12/02 05:08:45;;;;;;;34.50;27.37;;;3.00;99.90;;;;;;5100922;28;20184;-54
2022/12/02 05:11:10;;;;;;;28.37;25.27;;;2.90;99.90;;;;;;5101558;28;20223;-55
2022/12/02 05:13:36;;;;;;;36.00;27.70;;;2.90;99.90;;;;;;5101901;28;20188;-58
2022/12/02 05:16:02;;;;;;;33.63;26.10;;;2.90;99.90;;;;;;5101739;28;20310;-54
2022/12/02 05:18:27;;;;;;;29.90;26.23;;;2.90;99.90;;;;;;5098859;28;20194;-50
2022/12/02 05:20:53;;;;;;;38.37;30.57;;;2.90;99.90;;;;;;5091540;28;20260;-59
2022/12/02 05:23:18;;;;;;;35.40;26.30;;;2.80;99.90;;;;;;5097465;28;20264;-51
2022/12/02 05:25:44;;;;;;;34.77;26.50;;;2.80;99.90;;;;;;5100771;28;20259;-51
2022/12/02 05:28:09;;;;;;;33.67;26.60;;;2.80;99.90;;;;;;5099157;28;20302;-53
2022/12/02 05:30:35;;;;;;;36.53;29.20;;;2.80;99.90;;;;;;5095660;28;20184;-52
2022/12/02 05:33:01;;;;;;;37.10;27.60;;;2.80;99.90;;;;;;5099963;28;20191;-53
2022/12/02 05:35:27;;;;;;;35.53;30.67;;;2.80;99.90;;;;;;5101148;28;20191;-48
2022/12/02 05:37:53;;;;;;;36.65;28.23;;;2.80;99.90;;;;;;5096651;28;20193;-53
2022/12/02 05:40:18;;;;;;;35.27;26.70;;;2.80;99.90;;;;;;5100375;28;20188;-53
2022/12/02 05:42:44;;;;;;;30.83;25.70;;;2.80;99.90;;;;;;5098816;28;20199;-48
2022/12/02 05:45:14;;;;;;;49.07;28.63;;;2.80;99.90;;;;;;5101037;28;20270;-51
2022/12/02 05:47:40;;;;;;;37.25;26.80;;;2.80;99.90;;;;;;5100409;28;20580;-52
2022/12/02 05:50:11;;;;;;;36.77;28.20;;;2.70;99.90;;;;;;5100089;28;20244;-49
2022/12/02 05:52:37;;;;;;;35.38;26.30;;;2.70;99.90;;;;;;5100620;28;20468;-53
2022/12/02 05:55:11;;;;;;;36.85;27.80;;;2.70;99.90;;;;;;5099158;28;20895;-52
2022/12/02 05:57:37;;;;;;;32.78;27.15;;;2.70;99.90;;;;;;5100671;28;20240;-48
2022/12/02 06:00:22;;;;;;;38.73;28.90;;;2.60;99.90;;;;;;5100751;28;20583;-54
2022/12/02 06:02:58;;;;;;;32.92;26.13;;;2.60;99.90;;;;;;5099580;28;20176;-51
2022/12/02 06:05:36;;;;;;;38.78;28.10;;;2.60;99.90;;;;;;5100111;28;20202;-51
2022/12/02 06:08:13;;;;;;;34.53;26.00;;;2.60;99.90;;;;;;5101117;28;20207;-48
2022/12/02 06:10:52;;;;;;;33.95;26.98;;;2.60;99.90;;;;;;5100551;28;20179;-52
2022/12/02 06:13:25;;;;;;;34.97;26.38;;;2.60;99.90;;;;;;5100835;28;20220;-48
2022/12/02 06:15:51;;;;;;;39.55;28.85;;;2.60;99.90;;;;;;5100850;28;20359;-50
2022/12/02 06:18:19;;;;;;;33.03;25.90;;;2.60;99.90;;;;;;5101138;28;20183;-53
2022/12/02 06:20:50;;;;;;;36.53;27.30;;;2.60;99.90;;;;;;5099858;28;20188;-48
2022/12/02 06:23:19;;;;;;;34.47;26.40;;;2.60;99.90;;;;;;5099531;28;20176;-46
2022/12/02 06:25:46;;;;;;;38.70;29.20;;;2.60;99.90;;;;;;5100831;28;20187;-51
2022/12/02 06:28:35;;;;;;;36.63;28.30;;;2.60;99.90;;;;;;5099025;28;20211;-52
2022/12/02 06:31:14;;;;;;;36.38;27.50;;;2.60;99.90;;;;;;5099701;28;20186;-49
2022/12/02 06:33:40;;;;;;;34.80;28.45;;;2.60;99.90;;;;;;5099239;28;20224;-51
2022/12/02 06:36:11;;;;;;;32.33;26.20;;;2.60;99.90;;;;;;5100315;28;20179;-48
2022/12/02 06:38:48;;;;;;;33.90;27.50;;;2.60;99.90;;;;;;5100384;28;20285;-49
2022/12/02 06:41:23;;;;;;;36.92;28.70;;;2.70;99.90;;;;;;5100442;28;20549;-48
2022/12/02 06:46:35;;;;;;;42.63;33.53;;;2.70;99.90;;;;;;5100986;28;20213;-51
2022/12/02 06:49:22;;;;;;;35.30;27.23;;;2.60;99.90;;;;;;5099359;28;20260;-52
2022/12/02 06:51:54;;;;;;;32.83;25.65;;;2.50;99.90;;;;;;5100494;28;20195;-51
2022/12/02 06:54:31;;;;;;;36.20;28.77;;;2.60;99.90;;;;;;5100741;28;20209;-50
2022/12/02 06:56:59;;;;;;;31.88;26.52;;;2.60;99.90;;;;;;5101035;28;20270;-48
2022/12/02 06:59:26;;;;;;;33.70;25.65;;;2.60;99.90;;;;;;5100456;28;20737;-55
2022/12/02 07:01:54;;;;;;;32.90;26.35;;;2.60;99.90;;;;;;5094418;28;20188;-51
2022/12/02 07:04:46;;;;;;;33.50;26.35;;;2.70;99.90;;;;;;5099347;28;20183;-50
2022/12/02 07:07:26;;;;;;;29.30;25.15;;;2.70;99.90;;;;;;5099533;28;20218;-50
2022/12/02 07:09:55;;;;;;;33.03;25.70;;;2.70;99.90;;;;;;5100322;28;20190;-53
2022/12/02 07:12:36;;;;;;;27.27;23.50;;;2.70;99.90;;;;;;5100422;28;20589;-54
2022/12/02 07:15:15;;;;;;;29.00;24.75;;;2.70;99.90;;;;;;5100511;28;20168;-50
2022/12/02 07:17:43;;;;;;;27.73;23.58;;;2.70;99.90;;;;;;5100339;28;20292;-47
2022/12/02 07:20:10;;;;;;;29.92;24.15;;;2.70;99.90;;;;;;5100362;28;20180;-48
2022/12/02 07:22:57;;;;;;;29.00;23.52;;;2.70;99.90;;;;;;5098670;28;20195;-52
2022/12/02 07:25:45;;;;;;;31.25;23.92;;;2.70;99.90;;;;;;5103043;28;20183;-47
2022/12/02 07:28:22;;;;;;;31.73;26.73;;;2.70;99.90;;;;;;5103507;28;20260;-53
2022/12/02 07:31:01;;;;;;;28.92;24.38;;;2.70;99.90;;;;;;5102330;28;20187;-54
2022/12/02 07:33:28;;;;;;;28.02;24.35;;;2.70;99.90;;;;;;5102260;28;20262;-49
2022/12/02 07:35:53;;;;;;;30.02;23.60;;;2.60;99.90;;;;;;5103915;28;20180;-54
2022/12/02 07:38:19;;;;;;;28.00;23.50;;;2.70;99.90;;;;;;5103349;28;20228;-51
2022/12/02 07:40:45;;;;;;;30.90;24.80;;;2.60;99.90;;;;;;5104239;28;20691;-47
2022/12/02 07:43:11;;;;;;;31.00;23.97;;;2.60;99.90;;;;;;5103612;28;20253;-48
2022/12/02 07:45:37;;;;;;;31.35;24.10;;;2.70;99.90;;;;;;5103246;28;20207;-50
2022/12/02 07:48:02;;;;;;;30.63;24.27;;;2.70;99.90;;;;;;5103068;28;20282;-49
2022/12/02 07:50:28;;;;;;;29.80;23.10;;;2.70;99.90;;;;;;5103243;28;20187;-46
2022/12/02 07:52:54;;;;;;;26.90;23.13;;;2.70;99.90;;;;;;5103358;28;21161;-46
2022/12/02 07:55:19;;;;;;;33.40;24.67;;;2.80;99.90;;;;;;5103381;28;21098;-47
2022/12/02 07:57:45;;;;;;;28.70;22.73;;;2.80;99.90;;;;;;5102961;28;20187;-49
2022/12/02 08:00:11;;;;;;;28.60;22.93;;;2.80;99.90;;;;;;5102558;28;20214;-48
2022/12/02 08:02:37;;;;;;;28.77;23.48;;;2.80;99.90;;;;;;5102526;28;20227;-46
2022/12/02 08:05:03;;;;;;;27.70;23.50;;;2.80;99.90;;;;;;5102898;28;20211;-47
2022/12/02 08:07:28;;;;;;;28.00;23.90;;;2.80;99.90;;;;;;5103068;28;20684;-46
2022/12/02 08:09:55;;;;;;;30.40;24.67;;;2.80;99.90;;;;;;5102991;28;20183;-48
2022/12/02 08:12:21;;;;;;;30.23;24.70;;;2.80;99.90;;;;;;5103226;28;20241;-48
2022/12/02 08:14:46;;;;;;;30.70;24.90;;;2.80;99.90;;;;;;5101260;28;20207;-50
2022/12/02 08:17:12;;;;;;;31.30;24.83;;;2.70;99.90;;;;;;5102555;28;20231;-53
2022/12/02 08:19:40;;;;;;;32.03;24.80;;;2.70;99.90;;;;;;5101454;28;20857;-54
2022/12/02 08:22:06;;;;;;;34.85;27.50;;;2.70;99.90;;;;;;5102329;28;20176;-55
2022/12/02 08:24:31;;;;;;;34.10;27.20;;;2.80;99.90;;;;;;5103088;28;20187;-53
2022/12/02 08:26:57;;;;;;;37.10;26.67;;;2.80;99.90;;;;;;5102848;28;20458;-53
2022/12/02 08:29:23;;;;;;;34.53;26.47;;;2.80;99.90;;;;;;5101140;28;20184;-54
2022/12/02 08:31:49;;;;;;;55.67;45.47;;;2.80;99.90;;;;;;5102521;28;20425;-51
2022/12/02 08:34:15;;;;;;;38.50;29.97;;;2.80;99.90;;;;;;5101702;28;20187;-53
2022/12/02 08:36:40;;;;;;;42.77;31.87;;;2.90;99.90;;;;;;5103104;28;20832;-55
2022/12/02 08:39:06;;;;;;;36.43;28.13;;;2.80;99.90;;;;;;5102476;28;20210;-56
2022/12/02 08:41:36;;;;;;;40.42;30.52;;;2.80;99.90;;;;;;5102992;28;20274;-51
2022/12/02 08:44:03;;;;;;;37.42;28.25;;;2.80;99.90;;;;;;5102808;28;20651;-54
2022/12/02 08:46:29;;;;;;;41.22;29.70;;;2.80;99.90;;;;;;5102539;28;20243;-56
2022/12/02 08:48:55;;;;;;;36.40;28.63;;;2.80;99.90;;;;;;5102194;28;20179;-54
2022/12/02 08:51:21;;;;;;;39.10;28.80;;;2.80;99.90;;;;;;5101741;28;20187;-52
2022/12/02 08:53:46;;;;;;;42.63;28.73;;;2.90;99.90;;;;;;5102214;28;20191;-52
2022/12/02 08:56:12;;;;;;;38.43;29.13;;;2.80;99.90;;;;;;5102572;28;20436;-53
2022/12/02 08:58:38;;;;;;;38.20;30.57;;;2.90;99.90;;;;;;5101818;28;20191;-54
2022/12/02 09:01:04;;;;;;;37.97;29.07;;;2.90;99.90;;;;;;5101929;28;20183;-54
2022/12/02 09:03:29;;;;;;;37.13;28.17;;;2.90;99.90;;;;;;5101797;28;20203;-54
2022/12/02 09:05:55;;;;;;;35.90;26.80;;;2.90;99.90;;;;;;5100552;28;20453;-50
2022/12/02 09:08:21;;;;;;;39.00;28.93;;;2.90;99.90;;;;;;5101829;28;20310;-54
2022/12/02 09:10:46;;;;;;;36.30;27.20;;;2.90;99.90;;;;;;5102542;28;20195;-52
2022/12/02 09:13:12;;;;;;;39.07;28.50;;;3.00;99.90;;;;;;5102261;28;20168;-51
2022/12/02 09:15:39;;;;;;;37.60;28.90;;;2.90;99.90;;;;;;5101825;28;20199;-52
2022/12/02 09:18:05;;;;;;;36.10;29.48;;;3.00;99.90;;;;;;5101952;28;20668;-55
2022/12/02 09:20:30;;;;;;;37.37;30.30;;;3.00;99.90;;;;;;5100895;28;20188;-56
2022/12/02 09:22:56;;;;;;;36.00;28.50;;;3.00;99.90;;;;;;5100882;28;20919;-49
2022/12/02 09:25:22;;;;;;;36.67;29.02;;;3.00;99.90;;;;;;5101705;28;20194;-55
2022/12/02 09:27:48;;;;;;;37.47;28.70;;;2.90;99.90;;;;;;5100080;28;20561;-52
2022/12/02 09:30:14;;;;;;;35.53;27.37;;;2.90;99.90;;;;;;5100886;28;20590;-52
2022/12/02 09:32:41;;;;;;;32.85;25.75;;;2.90;99.90;;;;;;5101566;28;20187;-54
2022/12/02 09:35:07;;;;;;;34.88;27.95;;;2.90;99.90;;;;;;5101601;28;20179;-54
2022/12/02 09:37:33;;;;;;;34.53;27.33;;;2.90;99.90;;;;;;5100093;28;20226;-55
2022/12/02 09:39:59;;;;;;;32.80;27.07;;;3.00;99.90;;;;;;5101108;28;20223;-54
2022/12/02 09:42:24;;;;;;;35.50;26.67;;;3.00;99.90;;;;;;5101557;28;20180;-56
2022/12/02 09:44:50;;;;;;;32.30;27.00;;;2.90;99.90;;;;;;5083095;28;20204;-47
2022/12/02 09:47:17;;;;;;;33.00;25.50;;;2.90;99.90;;;;;;5100757;28;20461;-55
2022/12/02 09:49:44;;;;;;;32.95;25.40;;;2.90;99.90;;;;;;5101393;28;20438;-55
2022/12/02 09:52:26;;;;;;;29.95;25.30;;;2.90;99.90;;;;;;5100290;28;20278;-54
2022/12/02 09:54:56;;;;;;;33.20;26.23;;;2.90;99.90;;;;;;5100809;28;20297;-54
2022/12/02 09:57:27;;;;;;;30.80;25.20;;;2.90;99.90;;;;;;5100905;27;20180;-54
2022/12/02 09:59:53;;;;;;;33.67;25.45;;;2.90;99.90;;;;;;5101107;28;20247;-55
2022/12/02 10:02:23;;;;;;;32.17;24.70;;;3.00;99.90;;;;;;5100897;28;20654;-54
2022/12/02 10:04:48;;;;;;;32.08;25.75;;;3.00;99.90;;;;;;5101020;28;20494;-54
2022/12/02 10:07:14;;;;;;;33.60;25.97;;;3.10;99.90;;;;;;5100805;28;20252;-54
2022/12/02 10:09:40;;;;;;;33.10;25.60;;;3.00;99.90;;;;;;5100945;28;20200;-55
2022/12/02 10:12:09;;;;;;;29.90;25.03;;;3.00;99.90;;;;;;5100781;28;20186;-52
2022/12/02 10:14:36;;;;;;;33.95;26.08;;;3.00;99.90;;;;;;5101048;28;20184;-53
2022/12/02 10:17:08;;;;;;;34.63;25.48;;;3.00;99.90;;;;;;5100804;28;20239;-55
2022/12/02 10:19:35;;;;;;;31.48;25.85;;;3.10;99.90;;;;;;5100528;28;20180;-51
2022/12/02 10:22:01;;;;;;;27.98;24.02;;;3.10;99.90;;;;;;5100142;28;20226;-52
2022/12/02 10:24:39;;;;;;;31.60;25.50;;;3.00;99.90;;;;;;5101064;28;20215;-49
2022/12/02 10:27:04;;;;;;;30.10;25.33;;;3.10;99.90;;;;;;5100326;28;20465;-47
2022/12/02 10:29:31;;;;;;;30.43;25.43;;;3.20;99.90;;;;;;5099933;28;20188;-47
2022/12/02 10:32:03;;;;;;;35.10;25.50;;;3.20;99.90;;;;;;5100980;28;20200;-48
2022/12/02 10:34:31;;;;;;;31.00;25.00;;;3.10;99.90;;;;;;5100689;28;20175;-46
2022/12/02 10:37:22;;;;;;;30.23;24.88;;;3.10;99.90;;;;;;5100346;28;20997;-48
2022/12/02 10:39:49;;;;;;;32.38;27.15;;;3.10;99.90;;;;;;5100656;28;20184;-50
2022/12/02 10:42:20;;;;;;;36.17;27.52;;;3.20;99.90;;;;;;5100717;28;20190;-50
2022/12/02 10:44:46;;;;;;;36.88;27.27;;;3.20;99.90;;;;;;5099351;28;20232;-49
2022/12/02 10:47:16;;;;;;;32.53;26.00;;;3.10;99.90;;;;;;5100285;28;20206;-49
2022/12/02 10:50:03;;;;;;;32.75;24.65;;;3.20;99.90;;;;;;5100614;28;20541;-52
2022/12/02 10:52:45;;;;;;;33.13;25.63;;;3.10;99.90;;;;;;5098176;28;20192;-52
2022/12/02 10:55:11;;;;;;;38.85;28.63;;;3.10;99.90;;;;;;5100685;28;20184;-50
2022/12/02 10:57:38;;;;;;;40.38;30.95;;;3.10;99.90;;;;;;5100217;28;20600;-47
2022/12/02 11:00:13;;;;;;;37.00;30.10;;;3.00;99.90;;;;;;5103358;28;20530;-52
2022/12/02 11:02:56;;;;;;;40.60;29.80;;;2.90;99.90;;;;;;5104293;28;20224;-51
2022/12/02 11:05:28;;;;;;;33.22;27.73;;;2.90;99.90;;;;;;5103376;28;20673;-49
2022/12/02 11:07:59;;;;;;;31.58;27.30;;;2.90;99.90;;;;;;5104153;28;20196;-51
2022/12/02 11:10:40;;;;;;;29.48;25.00;;;2.90;99.90;;;;;;5103929;28;20229;-53
2022/12/02 11:13:26;;;;;;;28.95;25.35;;;2.90;99.90;;;;;;5104388;28;20301;-49
2022/12/02 11:15:52;;;;;;;30.35;24.95;;;2.90;99.90;;;;;;5103681;28;20216;-51
2022/12/02 11:18:23;;;;;;;35.63;27.00;;;3.00;99.90;;;;;;5104197;28;20222;-49
2022/12/02 11:21:12;;;;;;;35.22;26.05;;;3.00;99.90;;;;;;5102967;28;20202;-50
2022/12/02 11:23:38;;;;;;;31.88;25.08;;;2.90;99.90;;;;;;5093154;28;20203;-48
2022/12/02 11:26:11;;;;;;;32.90;26.10;;;2.80;99.90;;;;;;5102028;28;20187;-51
2022/12/02 11:28:38;;;;;;;33.85;27.30;;;2.70;99.90;;;;;;5103821;28;20296;-50
2022/12/02 11:31:09;;;;;;;34.22;26.60;;;2.70;99.90;;;;;;5103862;28;20180;-51
2022/12/02 11:33:46;;;;;;;33.20;26.58;;;2.70;99.90;;;;;;5103836;28;21395;-49
2022/12/02 11:36:14;;;;;;;33.60;27.13;;;2.80;99.90;;;;;;5103749;28;20178;-53
2022/12/02 11:38:47;;;;;;;30.73;25.52;;;2.80;99.90;;;;;;5104502;28;20219;-48
2022/12/02 11:41:13;;;;;;;31.67;25.45;;;2.80;99.90;;;;;;5103252;28;20187;-49
2022/12/02 11:44:08;;;;;;;31.00;26.42;;;2.90;99.90;;;;;;5103885;28;20640;-57
2022/12/02 11:46:48;;;;;;;35.58;26.77;;;2.90;99.90;;;;;;5066063;28;20219;-51
2022/12/02 11:49:27;;;;;;;34.08;26.75;;;2.90;99.90;;;;;;5103300;28;20217;-51
2022/12/02 11:52:04;;;;;;;33.13;27.35;;;2.90;99.90;;;;;;5102470;28;20224;-56
2022/12/02 11:54:30;;;;;;;37.50;27.63;;;2.90;99.90;;;;;;5104037;28;21012;-54
2022/12/02 11:56:57;;;;;;;31.67;26.48;;;3.00;99.90;;;;;;5103564;28;20206;-56
2022/12/02 11:59:28;;;;;;;32.50;26.38;;;3.10;99.90;;;;;;5103155;28;20198;-53
2022/12/02 12:02:14;;;;;;;33.90;25.70;;;3.00;99.90;;;;;;5100919;28;20182;-46
2022/12/02 12:04:41;;;;;;;32.67;24.95;;;3.00;99.90;;;;;;5103535;28;21299;-55
2022/12/02 12:07:07;;;;;;;34.20;27.67;;;3.00;99.90;;;;;;5084587;28;20216;-52
2022/12/02 12:09:33;;;;;;;34.30;26.20;;;3.00;99.90;;;;;;5103204;28;20852;-50
2022/12/02 12:12:18;;;;;;;30.65;26.25;;;3.00;99.90;;;;;;5102858;28;20175;-52
2022/12/02 12:15:03;;;;;;;35.95;26.67;;;3.00;99.90;;;;;;5103069;28;20207;-53
2022/12/02 12:17:38;;;;;;;39.08;28.25;;;3.00;99.90;;;;;;5103200;28;20219;-49
2022/12/02 12:20:13;;;;;;;37.55;27.85;;;3.00;99.90;;;;;;5102255;28;20228;-51
2022/12/02 12:22:40;;;;;;;34.80;27.42;;;3.00;99.90;;;;;;5102128;28;20186;-51
2022/12/02 12:25:40;;;;;;;38.65;28.83;;;3.00;99.90;;;;;;5102939;28;20175;-53
2022/12/02 12:28:22;;;;;;;32.97;25.98;;;3.00;99.90;;;;;;5100826;28;20243;-48
2022/12/02 12:30:48;;;;;;;35.28;28.13;;;3.00;99.90;;;;;;5102569;28;20187;-50
2022/12/02 12:33:13;;;;;;;35.70;29.03;;;2.90;99.90;;;;;;5102679;28;20188;-51
2022/12/02 12:35:39;;;;;;;35.17;27.60;;;3.00;99.90;;;;;;5102399;28;21381;-47
2022/12/02 12:38:04;;;;;;;32.20;26.37;;;3.00;99.90;;;;;;5103055;28;20180;-51
2022/12/02 12:40:30;;;;;;;34.90;26.80;;;3.00;99.90;;;;;;5102412;28;20321;-47
2022/12/02 12:42:55;;;;;;;35.90;27.30;;;3.00;99.90;;;;;;5102383;28;20188;-47
2022/12/02 12:45:21;;;;;;;33.20;26.63;;;3.00;99.90;;;;;;5102695;28;20184;-46
2022/12/02 12:47:47;;;;;;;36.57;28.70;;;2.90;99.90;;;;;;5102184;28;20538;-50